Time;durP1;ratioP1;P1;durP2;ratioP2;P2;SDS_P1;SDS_P2;PMS_P1;PMS_P2;Temp;Humidity;BMP_temperature;BMP_pressure;BME280_temperature;BME280_humidity;BME280_pressure;Samples;Min_cycle;Max_cycle;Signal;HPM_P1;HPM_P2
2022/02/20 00:01:09;;;;;;;6.18;2.85;;;18.60;94.60;;;;;;4195146;28;20219;-76
2022/02/20 00:03:12;;;;;;;8.32;2.92;;;18.60;94.60;;;;;;4196966;28;20284;-76
2022/02/20 00:05:14;;;;;;;7.55;2.92;;;18.60;95.00;;;;;;4197552;28;20219;-76
2022/02/20 00:07:16;;;;;;;7.78;2.63;;;18.60;94.60;;;;;;4197759;28;20279;-76
2022/02/20 00:09:19;;;;;;;7.32;2.70;;;18.60;94.60;;;;;;4197372;28;20280;-76
2022/02/20 00:11:21;;;;;;;5.50;2.72;;;18.60;94.60;;;;;;4197424;28;20276;-76
2022/02/20 00:13:25;;;;;;;6.10;2.65;;;18.60;95.00;;;;;;4197622;28;20721;-76
2022/02/20 00:15:29;;;;;;;5.50;2.78;;;18.50;94.90;;;;;;4197460;28;20276;-76
2022/02/20 00:17:31;;;;;;;7.72;2.58;;;18.60;94.60;;;;;;4194884;28;20224;-76
2022/02/20 00:19:33;;;;;;;7.18;2.22;;;18.60;94.60;;;;;;4197297;28;20355;-76
2022/02/20 00:21:36;;;;;;;7.75;2.60;;;18.50;94.60;;;;;;4197386;28;20245;-76
2022/02/20 00:23:40;;;;;;;9.57;2.85;;;18.50;94.60;;;;;;4195667;28;20250;-76
2022/02/20 00:25:43;;;;;;;6.97;2.55;;;18.50;94.60;;;;;;4194293;28;20215;-76
2022/02/20 00:27:47;;;;;;;6.70;2.33;;;18.50;94.60;;;;;;4198133;28;20219;-78
2022/02/20 00:29:51;;;;;;;6.35;2.70;;;18.50;94.60;;;;;;4195243;28;20223;-78
2022/02/20 00:31:53;;;;;;;6.88;3.00;;;18.50;94.60;;;;;;4198478;28;20268;-79
2022/02/20 00:33:56;;;;;;;5.18;2.45;;;18.50;94.60;;;;;;4197947;28;20211;-78
2022/02/20 00:35:58;;;;;;;6.90;2.60;;;18.50;94.60;;;;;;4195703;28;20249;-78
2022/02/20 00:38:01;;;;;;;6.90;2.78;;;18.50;94.80;;;;;;4198254;28;20252;-78
2022/02/20 00:40:04;;;;;;;5.72;2.13;;;18.50;94.60;;;;;;4197770;28;20246;-79
2022/02/20 00:42:07;;;;;;;4.85;1.98;;;18.50;94.70;;;;;;4198183;28;20218;-78
2022/02/20 00:44:09;;;;;;;6.82;2.42;;;18.50;94.60;;;;;;4197886;28;20239;-79
2022/02/20 00:46:13;;;;;;;5.70;2.20;;;18.50;94.60;;;;;;4197893;28;20223;-78
2022/02/20 00:48:19;;;;;;;5.30;2.53;;;18.50;94.60;;;;;;4197548;28;20211;-78
2022/02/20 00:50:21;;;;;;;7.00;2.83;;;18.50;94.60;;;;;;4198081;28;20293;-79
2022/02/20 00:52:24;;;;;;;6.28;2.38;;;18.50;94.60;;;;;;4194985;28;20223;-78
2022/02/20 00:54:26;;;;;;;6.88;3.08;;;18.50;94.60;;;;;;4197607;28;20288;-78
2022/02/20 00:56:28;;;;;;;6.45;2.40;;;18.50;94.60;;;;;;4197794;28;20219;-78
2022/02/20 00:58:31;;;;;;;6.50;2.83;;;18.50;94.60;;;;;;4197314;28;20214;-78
2022/02/20 01:00:33;;;;;;;5.82;2.33;;;18.40;94.60;;;;;;4197467;28;20215;-78
2022/02/20 01:02:37;;;;;;;4.68;2.45;;;18.50;94.60;;;;;;4197105;28;20273;-78
2022/02/20 01:04:39;;;;;;;5.18;2.30;;;18.40;94.60;;;;;;4197401;28;20238;-78
2022/02/20 01:06:42;;;;;;;6.85;2.55;;;18.40;94.60;;;;;;4197644;28;20223;-78
2022/02/20 01:08:44;;;;;;;5.88;2.40;;;18.40;94.60;;;;;;4194868;28;20276;-78
2022/02/20 01:10:47;;;;;;;6.68;2.40;;;18.40;94.60;;;;;;4197523;28;20232;-78
2022/02/20 01:12:49;;;;;;;8.45;2.38;;;18.40;94.60;;;;;;4197401;28;20215;-78
2022/02/20 01:14:51;;;;;;;6.00;2.22;;;18.40;94.50;;;;;;4192570;28;20216;-78
2022/02/20 01:16:54;;;;;;;5.22;2.28;;;18.40;94.60;;;;;;4194891;28;20203;-78
2022/02/20 01:18:57;;;;;;;5.32;2.38;;;18.40;94.60;;;;;;4195103;28;20689;-78
2022/02/20 01:21:00;;;;;;;5.72;2.25;;;18.40;94.60;;;;;;4194462;28;20219;-78
2022/02/20 01:23:03;;;;;;;7.13;2.25;;;18.40;94.60;;;;;;4195839;28;20207;-78
2022/02/20 01:25:06;;;;;;;5.78;2.47;;;18.40;94.60;;;;;;4193065;28;20280;-78
2022/02/20 01:27:08;;;;;;;7.32;2.22;;;18.40;94.60;;;;;;4194744;28;20276;-78
2022/02/20 01:29:10;;;;;;;5.97;2.20;;;18.30;94.60;;;;;;4195828;28;20273;-78
2022/02/20 01:31:13;;;;;;;6.35;2.25;;;18.40;94.60;;;;;;4196280;28;20649;-78
2022/02/20 01:33:17;;;;;;;4.43;2.20;;;18.40;94.60;;;;;;4194377;28;20237;-78
2022/02/20 01:35:21;;;;;;;4.68;2.10;;;18.40;94.60;;;;;;4195158;28;20211;-78
2022/02/20 01:37:23;;;;;;;4.97;2.10;;;18.30;94.60;;;;;;4194904;28;20296;-78
2022/02/20 01:39:25;;;;;;;6.00;1.77;;;18.40;94.60;;;;;;4195773;28;20219;-78
2022/02/20 01:41:28;;;;;;;4.57;2.08;;;18.30;94.50;;;;;;4195778;28;20219;-78
2022/02/20 01:43:30;;;;;;;7.82;2.20;;;18.30;94.60;;;;;;4192866;28;20215;-78
2022/02/20 01:45:33;;;;;;;6.25;2.20;;;18.30;94.60;;;;;;4194085;28;20215;-78
2022/02/20 01:47:37;;;;;;;5.13;2.28;;;18.30;94.70;;;;;;4195890;28;20268;-78
2022/02/20 01:49:40;;;;;;;4.68;2.10;;;18.30;94.60;;;;;;4195990;28;20265;-78
2022/02/20 01:51:44;;;;;;;6.13;2.33;;;18.30;94.70;;;;;;4195706;28;20260;-78
2022/02/20 01:53:46;;;;;;;5.78;1.92;;;18.30;94.70;;;;;;4195825;28;20269;-80
2022/02/20 01:55:50;;;;;;;6.07;2.25;;;18.30;94.70;;;;;;4195700;28;20215;-78
2022/02/20 01:57:53;;;;;;;5.80;2.47;;;18.30;94.70;;;;;;4196181;28;20564;-78
2022/02/20 01:59:59;;;;;;;4.70;1.98;;;18.30;94.70;;;;;;4193941;28;20629;-78
2022/02/20 02:02:01;;;;;;;4.00;2.22;;;18.30;94.60;;;;;;4196563;28;20215;-78
2022/02/20 02:04:04;;;;;;;4.53;2.10;;;18.30;94.70;;;;;;4196254;28;20981;-78
2022/02/20 02:06:07;;;;;;;6.95;2.17;;;18.30;94.70;;;;;;4196681;28;20223;-78
2022/02/20 02:08:10;;;;;;;5.00;2.20;;;18.30;94.70;;;;;;4196771;28;20227;-78
2022/02/20 02:10:13;;;;;;;5.68;2.30;;;18.30;94.70;;;;;;4196688;28;20227;-78
2022/02/20 02:12:16;;;;;;;5.07;2.03;;;18.30;94.60;;;;;;4193424;28;20265;-78
2022/02/20 02:14:19;;;;;;;4.03;2.00;;;18.30;94.60;;;;;;4194077;28;20211;-80
2022/02/20 02:16:22;;;;;;;4.30;2.28;;;18.30;94.70;;;;;;4193674;28;20230;-78
2022/02/20 02:18:25;;;;;;;7.80;2.58;;;18.30;94.60;;;;;;4193396;28;20233;-78
2022/02/20 02:20:27;;;;;;;4.93;2.10;;;18.30;94.70;;;;;;4196372;28;20219;-78
2022/02/20 02:22:31;;;;;;;5.65;2.00;;;18.30;94.70;;;;;;4196398;28;20227;-78
2022/02/20 02:24:33;;;;;;;5.95;2.42;;;18.20;94.70;;;;;;4194146;28;20235;-78
2022/02/20 02:26:36;;;;;;;6.30;2.30;;;18.30;94.70;;;;;;4196549;28;20268;-81
2022/02/20 02:28:38;;;;;;;5.78;2.42;;;18.20;94.70;;;;;;4196476;28;20219;-78
2022/02/20 02:30:41;;;;;;;4.53;1.80;;;18.20;94.80;;;;;;4195725;28;20288;-78
2022/02/20 02:32:43;;;;;;;5.53;2.05;;;18.30;94.70;;;;;;4195729;28;20211;-78
2022/02/20 02:34:47;;;;;;;7.70;2.17;;;18.30;94.70;;;;;;4195383;28;20659;-78
2022/02/20 02:36:49;;;;;;;4.50;2.20;;;18.20;95.10;;;;;;4196517;28;20218;-78
2022/02/20 02:38:53;;;;;;;5.68;2.30;;;18.20;94.70;;;;;;4196589;28;20199;-78
2022/02/20 02:40:57;;;;;;;5.78;2.15;;;18.20;94.60;;;;;;4196176;28;20231;-80
2022/02/20 02:42:59;;;;;;;5.43;2.20;;;18.20;94.60;;;;;;4196170;28;20269;-80
2022/02/20 02:45:01;;;;;;;5.10;2.13;;;18.20;94.70;;;;;;4196421;28;20261;-80
2022/02/20 02:47:04;;;;;;;5.40;2.60;;;18.20;94.70;;;;;;4196609;28;20207;-80
2022/02/20 02:49:07;;;;;;;6.20;2.20;;;18.20;94.70;;;;;;4196293;28;20222;-80
2022/02/20 02:51:09;;;;;;;5.30;2.42;;;18.20;94.80;;;;;;4194474;28;20219;-80
2022/02/20 02:53:12;;;;;;;5.38;2.35;;;18.20;94.70;;;;;;4196081;28;20230;-80
2022/02/20 02:55:15;;;;;;;7.25;2.30;;;18.20;94.70;;;;;;4196093;28;20268;-80
2022/02/20 02:57:18;;;;;;;4.78;2.25;;;18.30;94.70;;;;;;4196370;28;20211;-78
2022/02/20 02:59:20;;;;;;;6.35;2.47;;;18.20;94.70;;;;;;4196153;28;20245;-80
2022/02/20 03:01:22;;;;;;;6.55;2.17;;;18.20;94.70;;;;;;4196095;28;20292;-80
2022/02/20 03:03:25;;;;;;;4.68;2.00;;;18.20;94.70;;;;;;4195848;28;20250;-80
2022/02/20 03:05:28;;;;;;;4.82;2.00;;;18.20;94.80;;;;;;4195238;28;20235;-80
2022/02/20 03:07:31;;;;;;;5.88;2.05;;;18.20;94.90;;;;;;4189290;28;20219;-80
2022/02/20 03:09:35;;;;;;;7.38;2.20;;;18.20;94.90;;;;;;4195090;28;20219;-80
2022/02/20 03:11:39;;;;;;;6.28;2.30;;;18.20;94.90;;;;;;4196293;28;20620;-80
2022/02/20 03:13:42;;;;;;;5.47;2.47;;;18.20;94.80;;;;;;4196186;28;21061;-80
2022/02/20 03:15:44;;;;;;;5.88;2.20;;;18.20;94.80;;;;;;4195816;28;20618;-80
2022/02/20 03:17:46;;;;;;;6.10;2.67;;;18.20;94.80;;;;;;4196117;28;20237;-80
2022/02/20 03:19:49;;;;;;;5.60;2.30;;;18.20;95.20;;;;;;4196284;28;20287;-80
2022/02/20 03:21:51;;;;;;;6.72;2.35;;;18.20;94.80;;;;;;4196131;28;20667;-80
2022/02/20 03:23:54;;;;;;;5.82;2.60;;;18.10;94.80;;;;;;4195684;28;20305;-80
2022/02/20 03:25:56;;;;;;;6.47;1.92;;;18.20;94.80;;;;;;4194394;28;20637;-80
2022/02/20 03:28:00;;;;;;;8.52;2.53;;;18.10;94.80;;;;;;4195639;28;20226;-80
2022/02/20 03:30:02;;;;;;;5.78;2.42;;;18.10;94.90;;;;;;4196168;28;20275;-80
2022/02/20 03:32:05;;;;;;;6.57;2.35;;;18.10;94.90;;;;;;4196058;28;20203;-80
2022/02/20 03:34:08;;;;;;;7.22;2.72;;;18.10;94.90;;;;;;4195494;28;20215;-80
2022/02/20 03:36:10;;;;;;;6.97;2.47;;;18.10;95.00;;;;;;4195836;28;20273;-80
2022/02/20 03:38:13;;;;;;;5.95;2.67;;;18.10;95.00;;;;;;4195812;28;20214;-80
2022/02/20 03:40:15;;;;;;;9.32;3.10;;;18.10;95.00;;;;;;4196019;28;20626;-80
2022/02/20 03:42:18;;;;;;;6.25;2.72;;;18.10;95.00;;;;;;4194647;28;20227;-80
2022/02/20 03:44:21;;;;;;;6.18;2.50;;;18.10;95.00;;;;;;4197718;28;20211;-80
2022/02/20 03:46:24;;;;;;;8.38;2.65;;;18.10;95.30;;;;;;4199132;28;20243;-80
2022/02/20 03:48:26;;;;;;;6.53;2.50;;;18.10;95.00;;;;;;4199048;28;20269;-80
2022/02/20 03:50:28;;;;;;;8.18;2.90;;;18.10;95.10;;;;;;4198525;28;20219;-80
2022/02/20 03:52:31;;;;;;;7.20;2.63;;;18.10;95.10;;;;;;4198985;28;20226;-80
2022/02/20 03:54:33;;;;;;;7.10;2.65;;;18.00;95.10;;;;;;4198459;28;21015;-80
2022/02/20 03:56:36;;;;;;;6.30;2.65;;;18.00;95.20;;;;;;4197971;28;20617;-80
2022/02/20 03:58:38;;;;;;;9.38;2.95;;;18.00;95.20;;;;;;4197448;28;20219;-80
2022/02/20 04:00:42;;;;;;;5.93;2.72;;;18.00;95.20;;;;;;4198831;28;20272;-79
2022/02/20 04:02:46;;;;;;;7.07;2.85;;;18.00;95.20;;;;;;4198536;28;20712;-80
2022/02/20 04:04:48;;;;;;;7.45;2.38;;;18.10;95.30;;;;;;4195881;28;20212;-80
2022/02/20 04:06:51;;;;;;;9.70;2.88;;;18.00;95.30;;;;;;4196255;28;20219;-80
2022/02/20 04:08:54;;;;;;;8.35;3.20;;;18.00;95.30;;;;;;4198884;28;20265;-80
2022/02/20 04:10:56;;;;;;;7.40;2.33;;;18.10;95.40;;;;;;4198544;28;20260;-80
2022/02/20 04:12:58;;;;;;;8.35;3.05;;;18.00;95.40;;;;;;4193532;28;20219;-80
2022/02/20 04:15:01;;;;;;;8.20;3.10;;;18.10;95.40;;;;;;4197718;28;20280;-80
2022/02/20 04:17:05;;;;;;;7.95;3.08;;;18.00;95.50;;;;;;4197465;28;20855;-80
2022/02/20 04:19:07;;;;;;;6.40;2.38;;;18.10;95.50;;;;;;4198540;28;20261;-80
2022/02/20 04:21:09;;;;;;;10.23;3.45;;;18.00;95.50;;;;;;4198503;28;20276;-80
2022/02/20 04:23:12;;;;;;;6.65;2.60;;;18.00;95.50;;;;;;4198690;28;20360;-80
2022/02/20 04:25:15;;;;;;;7.55;2.72;;;18.00;95.50;;;;;;4198336;28;20561;-80
2022/02/20 04:27:17;;;;;;;5.95;2.47;;;18.00;95.50;;;;;;4198541;28;20640;-80
2022/02/20 04:29:19;;;;;;;9.45;3.15;;;18.00;95.60;;;;;;4198146;28;20215;-80
2022/02/20 04:31:22;;;;;;;6.88;2.80;;;18.00;95.70;;;;;;4197855;28;20626;-80
2022/02/20 04:33:26;;;;;;;7.72;3.08;;;18.00;95.70;;;;;;4197915;28;20223;-80
2022/02/20 04:35:30;;;;;;;6.60;2.75;;;18.00;95.70;;;;;;4197555;28;20253;-80
2022/02/20 04:37:32;;;;;;;9.25;3.08;;;18.00;95.70;;;;;;4198392;28;20207;-80
2022/02/20 04:39:35;;;;;;;10.20;3.30;;;18.00;96.10;;;;;;4198261;28;20615;-80
2022/02/20 04:41:37;;;;;;;9.80;3.53;;;18.00;95.90;;;;;;4198216;28;20290;-80
2022/02/20 04:43:39;;;;;;;7.13;2.90;;;18.00;95.90;;;;;;4197707;28;20256;-80
2022/02/20 04:45:42;;;;;;;8.55;3.00;;;18.00;95.90;;;;;;4198272;28;20706;-80
2022/02/20 04:47:44;;;;;;;8.30;3.08;;;18.00;95.90;;;;;;4197943;28;20268;-81
2022/02/20 04:49:48;;;;;;;10.45;2.97;;;18.00;95.90;;;;;;4196604;28;20264;-81
2022/02/20 04:51:53;;;;;;;10.38;3.15;;;18.00;96.00;;;;;;4198206;28;20245;-80
2022/02/20 04:53:56;;;;;;;8.40;3.17;;;18.00;96.00;;;;;;4197973;28;20256;-81
2022/02/20 04:55:59;;;;;;;9.40;2.95;;;18.00;96.10;;;;;;4192712;28;20237;-80
2022/02/20 04:58:02;;;;;;;8.13;3.15;;;18.00;96.10;;;;;;4195027;28;20206;-80
2022/02/20 05:00:06;;;;;;;9.75;3.30;;;18.00;96.10;;;;;;4198212;28;20219;-80
2022/02/20 05:02:08;;;;;;;9.52;2.92;;;18.00;96.10;;;;;;4197992;28;20655;-80
2022/02/20 05:04:10;;;;;;;9.10;2.92;;;18.00;96.10;;;;;;4203243;28;20289;-80
2022/02/20 05:06:14;;;;;;;8.20;3.42;;;18.00;96.20;;;;;;4204355;28;20315;-80
2022/02/20 05:08:16;;;;;;;9.82;3.03;;;18.00;96.20;;;;;;4203020;28;20914;-80
2022/02/20 05:10:19;;;;;;;8.18;3.00;;;18.00;96.30;;;;;;4201679;28;20215;-80
2022/02/20 05:12:21;;;;;;;8.25;3.00;;;18.00;96.20;;;;;;4198420;28;20219;-80
2022/02/20 05:14:23;;;;;;;9.77;3.35;;;18.00;96.30;;;;;;4197186;28;20223;-80
2022/02/20 05:16:27;;;;;;;8.10;3.15;;;18.00;96.30;;;;;;4196178;28;20223;-80
2022/02/20 05:18:30;;;;;;;9.25;3.75;;;17.90;96.30;;;;;;4197299;28;20223;-80
2022/02/20 05:20:32;;;;;;;9.07;3.40;;;17.90;96.40;;;;;;4196850;28;20231;-80
2022/02/20 05:22:36;;;;;;;9.10;3.78;;;17.90;96.80;;;;;;4196970;28;20222;-80
2022/02/20 05:24:38;;;;;;;7.82;3.20;;;17.90;96.50;;;;;;4196313;28;20226;-80
2022/02/20 05:26:40;;;;;;;9.63;3.60;;;17.90;96.50;;;;;;4197269;28;20242;-80
2022/02/20 05:28:43;;;;;;;12.30;3.60;;;17.90;96.60;;;;;;4197004;28;20215;-80
2022/02/20 05:30:45;;;;;;;12.48;3.97;;;17.90;96.60;;;;;;4196233;28;20215;-81
2022/02/20 05:32:48;;;;;;;9.13;3.58;;;17.90;96.70;;;;;;4196039;28;20348;-80
2022/02/20 05:34:54;;;;;;;11.65;3.38;;;17.90;96.70;;;;;;4196511;28;20249;-80
2022/02/20 05:36:56;;;;;;;9.25;2.95;;;17.90;96.80;;;;;;4196940;28;20219;-80
2022/02/20 05:39:00;;;;;;;11.18;3.35;;;17.90;96.80;;;;;;4196675;28;20215;-80
2022/02/20 05:41:02;;;;;;;9.02;3.40;;;17.90;96.70;;;;;;4196453;28;20280;-80
2022/02/20 05:43:04;;;;;;;8.75;2.97;;;17.90;96.80;;;;;;4196501;28;20252;-81
2022/02/20 05:45:08;;;;;;;8.63;3.42;;;17.90;96.80;;;;;;4197043;28;20265;-78
2022/02/20 05:47:13;;;;;;;8.32;3.40;;;17.90;96.90;;;;;;4196166;28;20239;-78
2022/02/20 05:49:15;;;;;;;8.68;2.92;;;17.90;96.90;;;;;;4194640;28;20227;-78
2022/02/20 05:51:17;;;;;;;12.75;3.17;;;17.90;97.00;;;;;;4195968;28;20211;-78
2022/02/20 05:53:20;;;;;;;9.20;3.28;;;17.90;97.00;;;;;;4192131;28;20212;-78
2022/02/20 05:55:24;;;;;;;9.30;3.05;;;17.90;97.00;;;;;;4194036;28;20561;-78
2022/02/20 05:57:27;;;;;;;7.93;3.38;;;17.90;97.00;;;;;;4193669;28;20237;-78
2022/02/20 05:59:30;;;;;;;7.75;3.13;;;17.90;97.00;;;;;;4196275;28;20560;-78
2022/02/20 06:01:32;;;;;;;10.38;3.38;;;17.90;97.00;;;;;;4195882;28;20230;-78
2022/02/20 06:03:35;;;;;;;8.85;3.50;;;17.90;97.10;;;;;;4195807;28;20765;-78
2022/02/20 06:05:37;;;;;;;9.45;2.92;;;17.90;97.10;;;;;;4195666;28;20269;-78
2022/02/20 06:07:40;;;;;;;10.02;3.03;;;17.80;97.00;;;;;;4195655;28;20984;-78
2022/02/20 06:09:42;;;;;;;8.93;3.08;;;17.90;97.10;;;;;;4195805;28;20370;-78
2022/02/20 06:11:46;;;;;;;9.68;2.97;;;17.80;97.10;;;;;;4195778;28;20264;-78
2022/02/20 06:13:48;;;;;;;8.13;3.20;;;17.90;97.10;;;;;;4194819;28;20269;-78
2022/02/20 06:15:50;;;;;;;10.15;2.90;;;17.90;97.10;;;;;;4195162;28;20664;-78
2022/02/20 06:17:53;;;;;;;11.05;3.30;;;17.90;97.10;;;;;;4195728;28;20252;-78
2022/02/20 06:19:55;;;;;;;6.57;2.80;;;17.90;97.30;;;;;;4195858;28;20223;-78
2022/02/20 06:21:57;;;;;;;9.45;3.10;;;17.80;97.30;;;;;;4195822;28;20663;-78
2022/02/20 06:24:00;;;;;;;11.90;3.63;;;17.90;97.40;;;;;;4195580;28;20236;-78
2022/02/20 06:26:02;;;;;;;9.07;3.70;;;17.90;97.30;;;;;;4195590;28;20219;-78
2022/02/20 06:28:06;;;;;;;10.88;3.85;;;17.90;97.40;;;;;;4195505;28;20243;-78
2022/02/20 06:30:09;;;;;;;10.52;3.40;;;17.90;97.40;;;;;;4195838;28;20231;-78
2022/02/20 06:32:11;;;;;;;10.55;3.20;;;17.90;97.40;;;;;;4192890;28;20339;-78
2022/02/20 06:34:14;;;;;;;10.20;3.88;;;17.90;97.50;;;;;;4195036;28;20266;-78
2022/02/20 06:36:16;;;;;;;10.02;3.47;;;17.90;97.50;;;;;;4195696;28;20219;-78
2022/02/20 06:38:18;;;;;;;9.43;3.55;;;17.90;97.50;;;;;;4195865;28;20215;-80
2022/02/20 06:40:21;;;;;;;9.25;3.08;;;17.90;97.60;;;;;;4196145;28;20240;-80
2022/02/20 06:42:23;;;;;;;10.70;3.08;;;17.90;97.60;;;;;;4196072;28;20273;-80
2022/02/20 06:44:27;;;;;;;7.68;2.83;;;17.90;97.60;;;;;;4190645;28;20222;-80
2022/02/20 06:46:30;;;;;;;7.10;2.60;;;17.80;97.60;;;;;;4195869;28;20223;-80
2022/02/20 06:48:33;;;;;;;9.98;3.15;;;17.80;97.70;;;;;;4193690;28;20289;-81
2022/02/20 06:50:35;;;;;;;9.75;3.10;;;17.80;97.70;;;;;;4196053;28;20284;-80
2022/02/20 06:52:37;;;;;;;9.77;3.28;;;17.80;97.70;;;;;;4196356;28;20257;-80
2022/02/20 06:54:39;;;;;;;11.63;3.15;;;17.80;98.10;;;;;;4195715;28;20231;-80
2022/02/20 06:56:42;;;;;;;6.40;2.83;;;17.80;97.70;;;;;;4196251;28;20548;-80
2022/02/20 06:58:44;;;;;;;8.70;3.15;;;17.90;97.80;;;;;;4196230;28;20284;-80
2022/02/20 07:00:48;;;;;;;11.73;3.20;;;17.80;97.90;;;;;;4194139;28;20280;-80
2022/02/20 07:02:50;;;;;;;8.20;3.17;;;17.80;97.80;;;;;;4193981;28;20655;-81
2022/02/20 07:04:52;;;;;;;8.82;3.22;;;17.80;97.90;;;;;;4196213;28;20219;-80
2022/02/20 07:06:55;;;;;;;8.25;3.22;;;17.90;98.00;;;;;;4193553;28;20641;-80
2022/02/20 07:08:57;;;;;;;8.40;2.97;;;17.80;97.90;;;;;;4196145;28;20215;-80
2022/02/20 07:11:00;;;;;;;10.48;3.03;;;17.80;98.00;;;;;;4193618;28;20223;-80
2022/02/20 07:13:02;;;;;;;8.30;2.65;;;17.80;98.10;;;;;;4196318;28;20223;-80
2022/02/20 07:15:06;;;;;;;7.82;2.65;;;17.80;98.20;;;;;;4195690;28;20236;-80
2022/02/20 07:17:10;;;;;;;7.47;2.90;;;17.80;98.10;;;;;;4196253;28;20218;-80
2022/02/20 07:19:12;;;;;;;10.85;3.15;;;17.80;98.20;;;;;;4199053;28;20272;-80
2022/02/20 07:21:14;;;;;;;9.73;3.22;;;17.80;98.20;;;;;;4199421;28;20203;-80
2022/02/20 07:23:17;;;;;;;7.65;2.83;;;17.80;98.20;;;;;;4196538;28;20733;-80
2022/02/20 07:25:20;;;;;;;7.50;2.72;;;17.80;98.20;;;;;;4199303;28;20276;-80
2022/02/20 07:27:23;;;;;;;6.20;2.50;;;17.80;98.40;;;;;;4199174;28;20633;-80
2022/02/20 07:29:25;;;;;;;7.90;3.10;;;17.80;98.30;;;;;;4198854;28;20272;-80
2022/02/20 07:31:28;;;;;;;8.30;3.15;;;17.80;98.30;;;;;;4193888;28;20609;-80
2022/02/20 07:33:31;;;;;;;7.38;2.55;;;17.80;98.40;;;;;;4199009;28;20261;-80
2022/02/20 07:35:34;;;;;;;7.78;2.67;;;17.80;98.40;;;;;;4199057;28;20277;-80
2022/02/20 07:37:36;;;;;;;7.22;2.72;;;17.80;98.50;;;;;;4199093;28;20268;-80
2022/02/20 07:39:39;;;;;;;9.23;3.22;;;17.80;98.50;;;;;;4196527;28;20227;-80
2022/02/20 07:41:44;;;;;;;10.98;3.17;;;17.80;98.60;;;;;;4198254;28;20223;-80
2022/02/20 07:43:49;;;;;;;7.28;3.08;;;17.80;98.60;;;;;;4198224;28;20207;-80
2022/02/20 07:45:51;;;;;;;11.07;3.20;;;17.80;98.70;;;;;;4198743;28;20227;-80
2022/02/20 07:47:56;;;;;;;10.18;3.03;;;17.80;98.70;;;;;;4199097;28;20243;-80
2022/02/20 07:49:59;;;;;;;8.88;2.58;;;17.80;98.70;;;;;;4199192;28;20211;-80
2022/02/20 07:52:02;;;;;;;6.63;2.92;;;17.80;98.70;;;;;;4198955;28;20192;-80
2022/02/20 07:54:04;;;;;;;9.00;2.70;;;17.80;98.70;;;;;;4198898;28;20219;-80
2022/02/20 07:56:08;;;;;;;8.43;2.70;;;17.80;98.80;;;;;;4197340;28;20214;-80
2022/02/20 07:58:12;;;;;;;10.93;3.03;;;17.80;98.90;;;;;;4197524;28;20823;-80
2022/02/20 08:00:16;;;;;;;7.05;2.80;;;17.80;98.90;;;;;;4198539;28;20231;-80
2022/02/20 08:02:19;;;;;;;8.75;3.75;;;17.80;98.90;;;;;;4198390;28;20207;-81
2022/02/20 08:04:21;;;;;;;9.52;2.78;;;17.80;98.90;;;;;;4198667;28;20285;-80
2022/02/20 08:06:25;;;;;;;8.77;2.80;;;17.80;99.00;;;;;;4198793;28;20222;-80
2022/02/20 08:08:28;;;;;;;10.48;3.25;;;17.80;99.10;;;;;;4198456;28;20284;-80
2022/02/20 08:10:30;;;;;;;5.47;2.60;;;17.70;99.10;;;;;;4198869;28;21002;-80
2022/02/20 08:12:33;;;;;;;7.60;2.83;;;17.70;99.10;;;;;;4198508;28;20636;-80
2022/02/20 08:14:36;;;;;;;7.75;2.80;;;17.80;99.20;;;;;;4195975;28;20215;-80
2022/02/20 08:16:38;;;;;;;6.82;2.83;;;17.70;99.10;;;;;;4198507;28;20265;-80
2022/02/20 08:18:41;;;;;;;6.50;2.45;;;17.80;99.20;;;;;;4198647;28;20615;-80
2022/02/20 08:20:44;;;;;;;7.00;2.60;;;17.80;99.20;;;;;;4198280;28;20219;-80
2022/02/20 08:22:49;;;;;;;9.77;2.70;;;17.80;99.40;;;;;;4198442;28;20261;-80
2022/02/20 08:24:51;;;;;;;7.78;2.55;;;17.80;99.40;;;;;;4198396;28;20215;-80
2022/02/20 08:26:54;;;;;;;9.73;2.72;;;17.80;99.40;;;;;;4198190;28;20219;-80
2022/02/20 08:28:56;;;;;;;9.02;2.85;;;17.80;99.80;;;;;;4197739;28;20255;-81
2022/02/20 08:30:58;;;;;;;7.40;2.85;;;17.80;99.50;;;;;;4188024;28;20219;-79
2022/02/20 08:33:02;;;;;;;8.45;2.75;;;17.80;99.60;;;;;;4195913;28;20722;-80
2022/02/20 08:35:08;;;;;;;9.52;2.90;;;17.80;99.50;;;;;;4198318;28;20230;-80
2022/02/20 08:37:10;;;;;;;8.10;2.80;;;17.80;99.70;;;;;;4198239;28;20262;-80
2022/02/20 08:39:14;;;;;;;6.93;2.58;;;17.80;99.90;;;;;;4198705;28;20282;-80
2022/02/20 08:41:17;;;;;;;6.18;2.53;;;17.80;99.60;;;;;;4198545;28;20219;-80
2022/02/20 08:43:20;;;;;;;9.05;2.88;;;17.80;99.60;;;;;;4198170;28;20211;-79
2022/02/20 08:45:22;;;;;;;6.88;2.70;;;17.70;99.70;;;;;;4198742;28;20615;-80
2022/02/20 08:47:25;;;;;;;6.40;2.45;;;17.70;99.80;;;;;;4196739;28;20274;-79
2022/02/20 08:49:28;;;;;;;6.78;2.40;;;17.80;99.80;;;;;;4198791;28;20219;-80
2022/02/20 08:51:31;;;;;;;7.38;2.55;;;17.80;99.80;;;;;;4198659;28;20556;-79
2022/02/20 08:53:35;;;;;;;9.80;2.53;;;17.70;99.90;;;;;;4200545;28;20957;-80
2022/02/20 08:55:39;;;;;;;7.00;2.53;;;17.80;99.80;;;;;;4201910;28;20241;-80
2022/02/20 08:57:43;;;;;;;7.50;2.55;;;17.80;99.90;;;;;;4203965;28;20217;-80
2022/02/20 08:59:46;;;;;;;6.93;2.38;;;17.80;99.90;;;;;;4205617;28;20667;-79
2022/02/20 09:01:48;;;;;;;7.47;2.30;;;17.80;99.90;;;;;;4205854;28;20237;-79
2022/02/20 09:03:50;;;;;;;7.95;2.80;;;17.70;99.90;;;;;;4200535;28;20269;-80
2022/02/20 09:05:53;;;;;;;5.30;2.08;;;17.70;99.90;;;;;;4196847;28;20713;-80
2022/02/20 09:07:55;;;;;;;6.50;2.60;;;17.80;99.90;;;;;;4198131;28;20561;-79
2022/02/20 09:09:57;;;;;;;7.75;2.50;;;17.80;99.90;;;;;;4198007;28;20215;-79
2022/02/20 09:12:01;;;;;;;6.18;2.38;;;17.80;99.90;;;;;;4197562;28;20227;-80
2022/02/20 09:14:04;;;;;;;8.10;2.58;;;17.80;99.90;;;;;;4197736;28;20659;-80
2022/02/20 09:16:06;;;;;;;6.00;2.30;;;17.80;99.90;;;;;;4197549;28;20245;-79
2022/02/20 09:18:08;;;;;;;7.43;2.50;;;17.80;99.90;;;;;;4197475;28;20215;-80
2022/02/20 09:20:12;;;;;;;6.00;2.40;;;17.80;99.90;;;;;;4195250;28;20240;-79
2022/02/20 09:22:15;;;;;;;6.28;2.53;;;17.70;99.90;;;;;;4195935;28;20223;-80
2022/02/20 09:24:17;;;;;;;6.22;2.28;;;17.70;99.90;;;;;;4197283;28;20709;-80
2022/02/20 09:26:19;;;;;;;8.02;2.50;;;17.70;99.90;;;;;;4197485;28;20288;-79
2022/02/20 09:28:23;;;;;;;6.90;2.50;;;17.70;99.90;;;;;;4195391;28;20243;-80
2022/02/20 09:30:25;;;;;;;6.57;2.28;;;17.80;99.90;;;;;;4190825;28;20642;-80
2022/02/20 09:32:28;;;;;;;4.97;2.15;;;17.80;99.90;;;;;;4196842;28;20222;-80
2022/02/20 09:34:31;;;;;;;7.72;2.42;;;17.70;99.90;;;;;;4196968;28;20943;-80
2022/02/20 09:36:33;;;;;;;6.90;2.60;;;17.80;99.90;;;;;;4197316;28;20211;-80
2022/02/20 09:38:36;;;;;;;5.50;2.30;;;17.80;99.90;;;;;;4195065;28;20264;-80
2022/02/20 09:40:39;;;;;;;6.22;2.20;;;17.80;99.90;;;;;;4196740;28;20267;-80
2022/02/20 09:42:43;;;;;;;5.10;2.33;;;17.70;99.90;;;;;;4194945;28;20671;-80
2022/02/20 09:44:47;;;;;;;10.88;3.15;;;17.80;99.90;;;;;;4197471;28;20218;-79
2022/02/20 09:46:52;;;;;;;6.00;2.08;;;17.70;99.90;;;;;;4197303;28;20215;-80
2022/02/20 09:48:56;;;;;;;6.63;2.20;;;17.70;99.90;;;;;;4196897;28;20280;-80
2022/02/20 09:50:59;;;;;;;7.38;2.17;;;17.70;99.90;;;;;;4197282;28;20265;-80
2022/02/20 09:53:02;;;;;;;5.07;1.98;;;17.80;99.90;;;;;;4197071;28;20265;-80
2022/02/20 09:55:05;;;;;;;5.50;1.95;;;17.80;99.90;;;;;;4196883;28;20215;-80
2022/02/20 09:57:07;;;;;;;7.50;2.22;;;17.80;99.90;;;;;;4197074;28;20609;-80
2022/02/20 09:59:10;;;;;;;7.50;2.67;;;17.80;99.90;;;;;;4196962;28;20332;-80
2022/02/20 10:01:15;;;;;;;6.70;2.50;;;17.70;99.90;;;;;;4196675;28;20664;-81
2022/02/20 10:03:29;;;;;;;8.27;2.67;;;17.80;99.90;;;;;;4195479;28;20231;-81
2022/02/20 10:05:32;;;;;;;6.13;2.47;;;17.70;99.90;;;;;;4196819;28;20296;-81
2022/02/20 10:07:36;;;;;;;8.23;2.50;;;17.80;99.90;;;;;;4196711;28;20203;-81
2022/02/20 10:09:39;;;;;;;5.68;2.22;;;17.70;99.90;;;;;;4196324;28;20288;-81
2022/02/20 10:11:41;;;;;;;6.78;2.67;;;17.80;99.90;;;;;;4196405;28;20265;-81
2022/02/20 10:13:44;;;;;;;6.13;2.22;;;17.70;99.90;;;;;;4194127;28;20269;-81
2022/02/20 10:15:46;;;;;;;7.68;2.33;;;17.80;99.90;;;;;;4196764;28;20261;-78
2022/02/20 10:17:50;;;;;;;6.53;2.28;;;17.80;99.90;;;;;;4196640;28;20273;-78
2022/02/20 10:19:58;;;;;;;6.90;2.20;;;17.80;99.90;;;;;;4192559;28;20211;-78
2022/02/20 10:22:05;;;;;;;4.00;2.00;;;17.70;99.90;;;;;;4193838;28;20194;-81
2022/02/20 10:24:09;;;;;;;7.53;2.30;;;17.80;99.90;;;;;;4196527;28;20223;-81
2022/02/20 10:26:13;;;;;;;7.85;2.45;;;17.70;99.90;;;;;;4196785;28;20713;-79
2022/02/20 10:28:21;;;;;;;8.10;2.30;;;17.70;99.90;;;;;;4196273;28;20226;-79
2022/02/20 10:30:25;;;;;;;6.70;2.60;;;17.80;99.90;;;;;;4196104;28;20218;-78
2022/02/20 10:32:30;;;;;;;6.25;1.92;;;17.70;99.90;;;;;;4196400;28;20218;-78
2022/02/20 10:34:34;;;;;;;5.75;2.13;;;17.70;99.90;;;;;;4196013;28;20276;-79
2022/02/20 10:36:54;;;;;;;5.88;1.90;;;17.70;99.90;;;;;;4196377;28;20227;-78
2022/02/20 10:38:56;;;;;;;6.20;2.42;;;17.70;99.90;;;;;;4196114;28;20273;-81